Time;durP1;ratioP1;P1;durP2;ratioP2;P2;SDS_P1;SDS_P2;PMS_P1;PMS_P2;Temp;Humidity;BMP_temperature;BMP_pressure;BME280_temperature;BME280_humidity;BME280_pressure;Samples;Min_cycle;Max_cycle;Signal;HPM_P1;HPM_P2
2023/01/31 00:00:20;;;;;;;4.30;3.30;;;4.30;97.30;;;;;;5036105;28;20412;-88
2023/01/31 00:02:45;;;;;;;1.17;1.07;;;4.30;97.30;;;;;;5036612;28;20172;-87
2023/01/31 00:05:11;;;;;;;1.33;1.23;;;4.30;97.30;;;;;;5035761;28;20402;-88
2023/01/31 00:07:36;;;;;;;1.00;0.90;;;4.20;97.30;;;;;;5036452;28;20203;-87
2023/01/31 00:10:02;;;;;;;1.10;1.00;;;4.20;97.30;;;;;;5036879;28;20601;-86
2023/01/31 00:12:28;;;;;;;17.40;1.67;;;4.20;97.30;;;;;;5037471;28;20683;-87
2023/01/31 00:14:53;;;;;;;1.50;1.40;;;4.30;97.30;;;;;;5039957;28;20175;-89
2023/01/31 00:17:19;;;;;;;5.60;2.47;;;4.30;97.30;;;;;;5058803;28;20647;-86
2023/01/31 00:19:44;;;;;;;1.53;1.43;;;4.30;97.30;;;;;;5040091;28;20203;-87
2023/01/31 00:22:09;;;;;;;1.00;0.90;;;4.30;97.30;;;;;;5059112;28;20238;-89
2023/01/31 00:24:35;;;;;;;1.00;0.90;;;4.30;97.30;;;;;;5039709;28;20801;-87
2023/01/31 00:27:00;;;;;;;1.17;1.07;;;4.30;97.30;;;;;;5038842;28;20176;-87
2023/01/31 00:29:26;;;;;;;1.20;1.10;;;4.30;97.30;;;;;;5040465;28;20242;-86
2023/01/31 00:31:51;;;;;;;4.20;1.47;;;4.30;97.30;;;;;;5059400;28;20219;-87
2023/01/31 00:34:17;;;;;;;1.33;1.23;;;4.30;97.30;;;;;;5059497;28;20213;-87
2023/01/31 00:36:43;;;;;;;1.07;0.93;;;4.20;97.30;;;;;;5059773;28;20228;-87
2023/01/31 00:39:09;;;;;;;11.93;1.30;;;4.20;97.30;;;;;;5058878;28;20712;-87
2023/01/31 00:41:36;;;;;;;0.90;0.80;;;4.10;97.30;;;;;;5076434;28;20257;-86
2023/01/31 00:44:02;;;;;;;2.80;2.00;;;4.10;97.30;;;;;;5059816;28;20461;-86
2023/01/31 00:46:28;;;;;;;1.10;1.10;;;4.10;97.30;;;;;;5076753;28;20412;-86
2023/01/31 00:48:55;;;;;;;1.43;1.10;;;4.10;97.30;;;;;;5060830;28;20838;-87
2023/01/31 00:51:21;;;;;;;1.10;1.00;;;4.10;97.30;;;;;;5060654;28;20391;-87
2023/01/31 00:53:47;;;;;;;1.00;0.90;;;4.10;97.30;;;;;;5059565;28;20425;-88
2023/01/31 00:56:19;;;;;;;1.00;0.90;;;4.10;97.30;;;;;;5060501;28;20519;-86
2023/01/31 00:58:44;;;;;;;5.30;2.80;;;4.10;97.30;;;;;;5060627;28;20406;-86
2023/01/31 01:01:20;;;;;;;2.43;1.23;;;4.10;97.30;;;;;;5060574;28;20457;-86
2023/01/31 01:03:46;;;;;;;7.47;1.20;;;4.10;97.30;;;;;;5060099;28;20206;-87
2023/01/31 01:06:12;;;;;;;4.03;2.47;;;4.10;97.30;;;;;;5060820;28;20419;-87
2023/01/31 01:08:39;;;;;;;2.33;2.13;;;4.00;97.30;;;;;;5060426;28;20417;-87
2023/01/31 01:11:11;;;;;;;22.27;3.20;;;4.00;97.30;;;;;;5061123;28;20433;-87
2023/01/31 01:13:37;;;;;;;1.00;0.90;;;4.00;97.30;;;;;;5053978;28;20430;-86
2023/01/31 01:16:10;;;;;;;2.60;1.93;;;4.00;97.30;;;;;;5041056;28;20421;-86
2023/01/31 01:18:38;;;;;;;0.80;0.70;;;3.90;97.30;;;;;;5040702;28;20480;-86
2023/01/31 01:21:10;;;;;;;9.93;1.30;;;3.90;97.30;;;;;;5040870;28;20477;-87
2023/01/31 01:23:39;;;;;;;1.10;1.00;;;3.90;97.30;;;;;;5039668;28;20521;-87
2023/01/31 01:26:11;;;;;;;0.90;0.80;;;3.90;97.30;;;;;;5040355;28;20452;-85
2023/01/31 01:28:39;;;;;;;7.03;1.63;;;3.80;97.30;;;;;;5041435;28;20433;-85
2023/01/31 01:31:07;;;;;;;0.93;0.83;;;3.70;97.30;;;;;;5041491;28;20521;-86
2023/01/31 01:33:33;;;;;;;0.83;0.73;;;3.70;97.30;;;;;;5041630;28;20441;-88
2023/01/31 01:36:02;;;;;;;1.50;1.40;;;3.70;97.30;;;;;;5027114;28;20431;-89
2023/01/31 01:38:28;;;;;;;0.80;0.70;;;3.70;97.30;;;;;;5026204;28;20503;-86
2023/01/31 01:40:54;;;;;;;1.27;1.17;;;3.70;97.30;;;;;;5034371;28;20443;-89
2023/01/31 01:43:19;;;;;;;0.90;0.80;;;3.70;97.30;;;;;;5033444;28;20183;-90
2023/01/31 01:45:45;;;;;;;2.20;1.77;;;3.70;97.30;;;;;;5033837;28;20177;-88
2023/01/31 01:48:15;;;;;;;1.57;1.20;;;3.80;97.30;;;;;;5034894;28;20176;-88
2023/01/31 01:50:46;;;;;;;0.87;0.77;;;3.80;97.30;;;;;;5033910;28;20423;-87
2023/01/31 01:53:19;;;;;;;1.53;1.43;;;3.80;97.30;;;;;;5033437;28;20629;-90
2023/01/31 01:55:54;;;;;;;0.93;0.83;;;3.90;97.30;;;;;;5034212;28;20450;-90
2023/01/31 01:58:29;;;;;;;0.87;0.77;;;3.90;97.30;;;;;;5024586;28;20419;-89
2023/01/31 02:00:55;;;;;;;0.80;0.70;;;4.00;97.30;;;;;;5019044;28;20828;-86
2023/01/31 02:03:21;;;;;;;1.87;1.00;;;4.00;97.30;;;;;;5018764;28;20409;-86
2023/01/31 02:05:57;;;;;;;1.63;1.10;;;4.00;97.30;;;;;;5018741;28;20179;-89
2023/01/31 02:08:25;;;;;;;1.20;1.10;;;4.10;97.30;;;;;;5036429;28;20814;-90
2023/01/31 02:10:56;;;;;;;1.40;1.30;;;4.10;97.30;;;;;;5017739;28;20427;-86
2023/01/31 02:13:22;;;;;;;0.80;0.70;;;4.10;97.30;;;;;;5034860;28;20418;-87
2023/01/31 02:15:48;;;;;;;1.33;1.27;;;4.10;97.30;;;;;;5017655;28;20416;-87
2023/01/31 02:18:15;;;;;;;1.43;1.33;;;4.10;97.30;;;;;;5017184;28;20481;-86
2023/01/31 02:21:16;;;;;;;5.23;3.33;;;4.10;97.30;;;;;;5017044;28;20247;-86
2023/01/31 02:24:11;;;;;;;4.30;1.60;;;4.10;97.30;;;;;;5006822;28;20538;-88
2023/01/31 02:26:58;;;;;;;3.63;2.03;;;4.10;97.30;;;;;;5035700;28;20441;-86
2023/01/31 02:29:42;;;;;;;0.90;0.80;;;4.10;97.30;;;;;;5055831;28;20917;-89
2023/01/31 02:32:17;;;;;;;3.03;1.00;;;4.00;97.30;;;;;;5055742;28;20425;-86
2023/01/31 02:35:09;;;;;;;1.00;0.90;;;4.00;97.30;;;;;;5037527;28;20440;-88
2023/01/31 02:38:07;;;;;;;1.00;0.90;;;4.00;97.30;;;;;;5037208;28;20414;-87
2023/01/31 02:40:57;;;;;;;1.10;1.00;;;4.00;97.30;;;;;;5036929;28;20908;-89
2023/01/31 02:44:58;;;;;;;6.83;1.30;;;4.00;97.30;;;;;;5037958;28;20418;-88
2023/01/31 02:46:27;;;;;;;1.03;0.93;;;3.90;97.30;;;;;;5054818;28;20976;-86
2023/01/31 02:48:58;;;;;;;1.00;0.90;;;3.90;97.30;;;;;;5055664;28;20403;-86
2023/01/31 02:51:40;;;;;;;1.37;1.27;;;3.90;97.30;;;;;;5037540;28;20923;-89
2023/01/31 02:54:12;;;;;;;1.00;0.90;;;3.90;97.30;;;;;;5039154;28;20422;-84
2023/01/31 02:56:41;;;;;;;2.40;1.37;;;3.90;97.30;;;;;;5041108;28;20418;-86
2023/01/31 03:01:46;;;;;;;0.97;0.87;;;3.90;97.30;;;;;;5386211;22;20502;-88
2023/01/31 03:04:12;;;;;;;3.00;2.77;;;3.90;97.30;;;;;;5028865;28;20464;-85
2023/01/31 03:07:03;;;;;;;1.10;1.00;;;3.90;97.30;;;;;;5021094;28;20424;-87
2023/01/31 03:09:35;;;;;;;9.33;2.90;;;3.90;97.30;;;;;;5025142;28;20423;-90
2023/01/31 03:12:39;;;;;;;1.10;1.00;;;3.90;97.30;;;;;;5022054;28;20451;-84
2023/01/31 03:17:30;;;;;;;1.47;1.37;;;3.90;97.30;;;;;;5033624;23;20571;-88
2023/01/31 03:18:18;;;;;;;1.10;1.00;;;3.90;97.30;;;;;;5008225;28;20569;-88
2023/01/31 03:20:58;;;;;;;1.10;1.00;;;3.90;97.30;;;;;;5012018;28;20424;-88
2023/01/31 03:23:28;;;;;;;13.73;1.20;;;4.00;97.30;;;;;;5011513;28;20460;-89
2023/01/31 03:25:55;;;;;;;1.00;0.90;;;4.00;97.30;;;;;;5001332;28;20620;-88
2023/01/31 03:28:27;;;;;;;1.10;1.00;;;3.90;97.30;;;;;;5008660;28;20516;-89
2023/01/31 03:31:00;;;;;;;9.37;1.00;;;3.90;97.30;;;;;;4992074;28;20531;-89
2023/01/31 03:33:31;;;;;;;12.07;1.20;;;3.90;97.30;;;;;;5008384;28;20413;-88
2023/01/31 03:36:12;;;;;;;0.97;0.87;;;3.90;97.30;;;;;;4990894;28;20484;-88
2023/01/31 03:39:08;;;;;;;4.67;1.50;;;3.90;97.30;;;;;;4991655;28;20431;-89
2023/01/31 03:41:45;;;;;;;0.87;0.77;;;3.90;97.30;;;;;;5004515;28;21001;-89
2023/01/31 03:44:30;;;;;;;2.90;1.57;;;3.90;97.30;;;;;;5003578;28;20469;-88
2023/01/31 03:47:03;;;;;;;0.87;0.77;;;3.90;97.30;;;;;;4987444;28;20410;-88
2023/01/31 03:49:42;;;;;;;9.40;1.67;;;4.00;97.30;;;;;;4993524;28;20856;-89
2023/01/31 03:52:21;;;;;;;7.10;1.57;;;4.00;97.30;;;;;;5007948;28;20528;-88
2023/01/31 03:54:53;;;;;;;1.00;0.90;;;4.00;97.30;;;;;;5010502;28;20519;-88
2023/01/31 03:57:43;;;;;;;0.90;0.80;;;4.00;97.30;;;;;;5004767;28;20417;-88
2023/01/31 04:00:21;;;;;;;4.40;1.23;;;4.00;97.30;;;;;;4992169;28;20581;-89
2023/01/31 04:03:00;;;;;;;1.23;1.20;;;4.00;97.30;;;;;;4999557;28;20556;-88
2023/01/31 04:05:43;;;;;;;0.93;0.83;;;4.00;97.30;;;;;;5005478;28;20469;-88
2023/01/31 04:08:11;;;;;;;1.27;1.20;;;4.00;97.30;;;;;;5010269;28;20902;-88
2023/01/31 04:10:40;;;;;;;23.53;2.83;;;4.00;97.30;;;;;;5006258;28;20444;-88
2023/01/31 04:13:13;;;;;;;1.43;1.37;;;4.00;97.30;;;;;;5006011;28;20702;-88
2023/01/31 04:15:39;;;;;;;4.50;2.00;;;4.00;97.30;;;;;;5004866;28;20520;-88
2023/01/31 04:18:04;;;;;;;2.00;1.77;;;4.00;97.30;;;;;;5005393;28;20926;-89
2023/01/31 04:20:30;;;;;;;1.10;1.00;;;4.00;97.30;;;;;;4990331;28;20175;-87
2023/01/31 04:23:03;;;;;;;0.90;0.80;;;3.90;97.30;;;;;;5008025;28;20193;-88
2023/01/31 04:25:31;;;;;;;3.10;2.50;;;3.90;97.30;;;;;;5004964;28;20725;-89
2023/01/31 04:28:04;;;;;;;0.90;0.80;;;3.90;97.30;;;;;;5005199;28;20419;-88
2023/01/31 04:30:29;;;;;;;1.33;1.20;;;3.90;97.30;;;;;;4989127;28;20467;-87
2023/01/31 04:32:55;;;;;;;2.23;2.03;;;3.90;97.30;;;;;;5007781;28;20858;-89
2023/01/31 04:35:20;;;;;;;12.43;1.20;;;3.90;97.30;;;;;;5001828;28;20202;-88
2023/01/31 04:37:48;;;;;;;0.97;0.87;;;3.90;97.30;;;;;;5006913;28;20186;-89
2023/01/31 04:40:13;;;;;;;1.00;0.90;;;3.90;97.30;;;;;;4991595;28;20186;-89
2023/01/31 04:42:42;;;;;;;1.00;0.90;;;3.80;97.30;;;;;;5006654;28;20424;-86
2023/01/31 04:45:13;;;;;;;2.53;1.43;;;3.80;97.30;;;;;;5004386;28;20210;-88
2023/01/31 04:47:39;;;;;;;1.00;0.90;;;3.80;97.30;;;;;;5009172;28;20417;-89
2023/01/31 04:50:12;;;;;;;1.00;0.90;;;3.80;97.30;;;;;;4992067;28;20476;-89
2023/01/31 04:52:40;;;;;;;1.13;1.07;;;3.70;97.30;;;;;;4999710;28;20257;-89
2023/01/31 04:55:13;;;;;;;1.20;1.10;;;3.70;97.30;;;;;;5000519;28;20512;-88
2023/01/31 04:57:42;;;;;;;0.80;0.70;;;3.70;97.30;;;;;;5004400;28;20424;-87
2023/01/31 05:00:24;;;;;;;;;;;;;;;;;;;;;
2023/01/31 05:03:13;;;;;;;2.40;2.20;;;3.70;97.30;;;;;;4994265;28;20496;-89
2023/01/31 05:08:53;;;;;;;1.03;0.93;;;3.70;97.30;;;;;;4993780;28;20452;-89
2023/01/31 05:11:32;;;;;;;4.40;1.33;;;3.60;97.30;;;;;;5009927;28;20466;-88
2023/01/31 05:14:33;;;;;;;0.80;0.70;;;3.60;97.30;;;;;;5010007;28;20475;-89
2023/01/31 05:17:12;;;;;;;0.90;0.80;;;3.60;97.30;;;;;;5004864;28;20420;-89
2023/01/31 05:19:44;;;;;;;1.00;0.90;;;3.60;97.30;;;;;;5010984;28;20950;-89
2023/01/31 05:22:13;;;;;;;1.10;1.00;;;3.60;97.30;;;;;;5018915;28;20426;-88
2023/01/31 05:25:22;;;;;;;1.23;1.13;;;3.60;97.30;;;;;;5012589;28;20488;-89
2023/01/31 05:28:01;;;;;;;1.00;0.90;;;3.50;97.30;;;;;;5018656;28;20425;-89
2023/01/31 05:30:44;;;;;;;1.03;0.93;;;3.50;97.30;;;;;;5010492;28;20912;-88
2023/01/31 05:33:13;;;;;;;2.33;2.13;;;3.50;97.30;;;;;;5004613;28;20428;-88
2023/01/31 05:35:41;;;;;;;1.67;1.57;;;3.40;97.30;;;;;;5017105;28;20436;-89
2023/01/31 05:38:08;;;;;;;0.90;0.80;;;3.40;97.30;;;;;;5018253;28;20429;-89
2023/01/31 05:40:33;;;;;;;1.90;1.80;;;3.40;97.30;;;;;;5011213;28;20504;-88
2023/01/31 05:43:02;;;;;;;1.03;0.93;;;3.40;97.30;;;;;;5016541;28;20427;-90
2023/01/31 05:45:28;;;;;;;0.90;0.80;;;3.40;97.30;;;;;;5018499;28;20213;-88
2023/01/31 05:47:54;;;;;;;0.93;0.87;;;3.40;97.30;;;;;;5030241;28;20459;-89
2023/01/31 05:50:20;;;;;;;15.30;1.70;;;3.40;97.30;;;;;;5013190;28;20193;-87
2023/01/31 05:52:54;;;;;;;4.33;1.40;;;3.40;97.30;;;;;;5004131;28;20435;-88
2023/01/31 05:55:20;;;;;;;0.90;0.80;;;3.40;97.30;;;;;;5003724;28;20448;-88
2023/01/31 05:57:46;;;;;;;5.10;1.23;;;3.40;97.30;;;;;;4998532;28;20999;-88
2023/01/31 06:00:13;;;;;;;1.80;1.77;;;3.40;97.30;;;;;;4987923;28;20426;-88
2023/01/31 06:02:39;;;;;;;0.93;0.83;;;3.40;97.30;;;;;;5009003;28;20217;-88
2023/01/31 06:05:05;;;;;;;1.60;1.50;;;3.40;97.30;;;;;;5029498;28;20888;-89
2023/01/31 06:07:30;;;;;;;1.70;1.60;;;3.40;97.30;;;;;;5021301;28;20423;-89
2023/01/31 06:09:56;;;;;;;58.13;2.50;;;3.40;97.30;;;;;;5021750;28;20554;-87
2023/01/31 06:12:21;;;;;;;0.80;0.70;;;3.40;97.30;;;;;;5020059;28;20173;-88
2023/01/31 06:14:48;;;;;;;1.10;1.00;;;3.40;97.30;;;;;;5008308;28;20237;-88
2023/01/31 06:17:13;;;;;;;0.93;0.83;;;3.50;97.30;;;;;;5014596;28;20211;-88
2023/01/31 06:19:39;;;;;;;1.63;1.53;;;3.50;97.30;;;;;;5018007;28;20951;-89
2023/01/31 06:22:05;;;;;;;0.97;0.87;;;3.50;97.30;;;;;;5021837;28;20280;-89
2023/01/31 06:24:30;;;;;;;3.93;2.03;;;3.50;97.30;;;;;;5018869;28;20213;-88
2023/01/31 06:26:56;;;;;;;1.50;1.40;;;3.60;97.30;;;;;;5014803;28;20469;-87
2023/01/31 06:29:21;;;;;;;1.13;1.03;;;3.60;97.30;;;;;;5015571;28;20386;-87
2023/01/31 06:31:46;;;;;;;1.07;0.97;;;3.60;97.30;;;;;;5008278;28;20213;-89
2023/01/31 06:34:12;;;;;;;0.80;0.70;;;3.60;97.30;;;;;;5021596;28;20205;-88
2023/01/31 06:36:38;;;;;;;1.50;1.40;;;3.60;97.30;;;;;;5007296;28;20185;-88
2023/01/31 06:39:03;;;;;;;0.90;0.80;;;3.60;97.30;;;;;;5012583;28;20574;-88
2023/01/31 06:41:29;;;;;;;1.00;0.90;;;3.60;97.30;;;;;;5027225;28;20181;-88
2023/01/31 06:43:55;;;;;;;1.10;1.00;;;3.60;97.30;;;;;;5029797;28;20213;-89
2023/01/31 06:46:21;;;;;;;1.63;1.50;;;3.60;97.30;;;;;;5005227;28;20244;-90
2023/01/31 06:48:49;;;;;;;0.80;0.70;;;3.70;97.30;;;;;;4992491;28;20943;-87
2023/01/31 06:51:15;;;;;;;5.73;2.20;;;3.70;97.30;;;;;;4999730;28;20181;-87
2023/01/31 06:53:41;;;;;;;8.27;1.97;;;3.80;97.30;;;;;;4994949;28;20520;-88
2023/01/31 06:56:07;;;;;;;0.93;0.83;;;3.80;97.30;;;;;;5022234;28;20463;-87
2023/01/31 06:58:33;;;;;;;0.90;0.80;;;3.80;97.30;;;;;;5027337;28;20575;-88
2023/01/31 07:01:10;;;;;;;48.00;3.03;;;3.90;97.30;;;;;;4994031;28;20428;-89
2023/01/31 07:03:36;;;;;;;1.20;1.10;;;3.90;97.30;;;;;;5018366;28;20658;-89
2023/01/31 07:06:01;;;;;;;18.40;3.67;;;3.90;97.30;;;;;;5015508;28;20434;-88
2023/01/31 07:08:27;;;;;;;4.37;1.77;;;3.90;97.30;;;;;;5016574;28;20718;-88
2023/01/31 07:10:53;;;;;;;1.03;0.93;;;3.90;97.30;;;;;;5012810;28;20181;-88
2023/01/31 07:13:18;;;;;;;1.10;1.00;;;3.90;97.30;;;;;;5020662;28;20424;-88
2023/01/31 07:15:44;;;;;;;3.00;2.20;;;3.90;97.30;;;;;;5011989;28;20237;-88
2023/01/31 07:18:11;;;;;;;0.90;0.80;;;3.90;97.30;;;;;;5020713;28;20558;-88
2023/01/31 07:20:38;;;;;;;2.40;1.37;;;3.90;97.30;;;;;;5020956;28;20626;-87
2023/01/31 07:23:03;;;;;;;0.97;0.87;;;3.90;97.30;;;;;;5030927;28;21000;-89
2023/01/31 07:25:32;;;;;;;5.13;2.70;;;4.00;97.30;;;;;;5015341;28;20461;-88
2023/01/31 07:27:58;;;;;;;1.00;0.90;;;4.00;97.30;;;;;;5012593;28;20182;-88
2023/01/31 07:30:25;;;;;;;1.00;0.90;;;4.00;97.30;;;;;;5021284;28;20428;-87
2023/01/31 07:32:50;;;;;;;1.03;1.00;;;4.00;97.30;;;;;;5024020;28;20420;-88
2023/01/31 07:35:16;;;;;;;1.10;1.00;;;4.10;97.30;;;;;;5030812;28;20484;-87
2023/01/31 07:37:42;;;;;;;11.43;2.33;;;4.10;97.30;;;;;;5025717;28;20271;-87
2023/01/31 07:40:12;;;;;;;2.13;1.97;;;4.10;97.30;;;;;;5027684;28;20196;-88
2023/01/31 07:42:38;;;;;;;1.90;1.30;;;4.10;97.30;;;;;;5034089;28;20423;-89
2023/01/31 07:45:04;;;;;;;0.90;0.80;;;4.10;97.30;;;;;;5027575;28;20580;-87
2023/01/31 07:47:30;;;;;;;0.93;0.83;;;4.10;97.30;;;;;;5020400;28;20285;-87
2023/01/31 07:49:55;;;;;;;1.47;1.37;;;4.10;97.30;;;;;;5011963;28;20452;-88
2023/01/31 07:52:21;;;;;;;1.20;1.10;;;4.10;97.30;;;;;;5019399;28;20276;-89
2023/01/31 07:54:46;;;;;;;1.13;1.03;;;4.10;97.30;;;;;;5016186;28;20390;-88
2023/01/31 07:57:12;;;;;;;1.10;1.00;;;4.00;97.30;;;;;;5018465;28;20182;-88
2023/01/31 07:59:37;;;;;;;1.20;1.10;;;4.00;97.30;;;;;;5017187;28;20541;-88
2023/01/31 08:04:47;;;;;;;2.40;1.87;;;4.10;97.30;;;;;;5033515;28;20232;-88
2023/01/31 08:07:13;;;;;;;3.00;2.60;;;4.20;97.30;;;;;;5012586;28;20429;-88
2023/01/31 08:09:38;;;;;;;2.27;2.10;;;4.20;97.30;;;;;;5012205;28;20181;-87
2023/01/31 08:12:05;;;;;;;0.90;0.80;;;4.30;97.30;;;;;;5019816;28;20200;-88
2023/01/31 08:14:31;;;;;;;1.90;1.37;;;4.30;97.30;;;;;;5004751;28;20581;-87
2023/01/31 08:16:57;;;;;;;2.50;2.07;;;4.30;97.30;;;;;;4996975;28;20791;-88
2023/01/31 08:19:22;;;;;;;1.00;0.90;;;4.40;97.30;;;;;;5011190;28;20431;-88
2023/01/31 08:21:48;;;;;;;1.47;1.37;;;4.40;97.30;;;;;;5006062;28;20186;-88
2023/01/31 08:24:13;;;;;;;1.03;0.93;;;4.40;97.30;;;;;;5014235;28;20221;-87
2023/01/31 08:26:41;;;;;;;1.30;1.23;;;4.40;97.30;;;;;;5022259;28;20178;-87
2023/01/31 08:29:07;;;;;;;3.17;1.30;;;4.40;97.30;;;;;;5003346;28;20181;-87
2023/01/31 08:31:32;;;;;;;3.77;1.43;;;4.40;97.30;;;;;;5026081;28;20425;-88
2023/01/31 08:33:58;;;;;;;1.10;1.00;;;4.40;97.30;;;;;;5024719;28;20742;-88
2023/01/31 08:36:27;;;;;;;5.63;2.80;;;4.40;97.30;;;;;;5026428;28;20189;-88
2023/01/31 08:38:53;;;;;;;0.90;0.80;;;4.40;97.30;;;;;;5009096;28;20428;-89
2023/01/31 08:41:21;;;;;;;0.97;0.87;;;4.40;97.30;;;;;;5018749;28;20439;-89
2023/01/31 08:43:50;;;;;;;1.17;1.00;;;4.40;97.30;;;;;;5014346;28;20551;-88
2023/01/31 08:46:16;;;;;;;1.70;1.60;;;4.40;97.30;;;;;;5015649;28;20421;-89
2023/01/31 08:48:42;;;;;;;2.23;2.03;;;4.40;97.30;;;;;;5023845;28;20417;-89
2023/01/31 08:51:10;;;;;;;2.93;1.23;;;4.50;97.30;;;;;;5032992;28;20601;-87
2023/01/31 08:53:43;;;;;;;1.17;1.07;;;4.50;97.30;;;;;;5014575;28;20421;-87
2023/01/31 08:56:10;;;;;;;1.20;1.10;;;4.50;97.30;;;;;;5001831;28;20420;-88
2023/01/31 08:58:37;;;;;;;1.53;1.23;;;4.50;97.30;;;;;;5030667;28;20415;-88
2023/01/31 09:01:08;;;;;;;14.73;1.10;;;4.50;97.30;;;;;;5019681;28;20474;-88
2023/01/31 09:03:34;;;;;;;0.90;0.80;;;4.50;97.30;;;;;;5015478;28;20413;-88
2023/01/31 09:06:01;;;;;;;1.10;1.00;;;4.50;97.30;;;;;;5022228;28;20764;-88
2023/01/31 09:08:26;;;;;;;3.90;1.10;;;4.50;97.30;;;;;;5013436;28;20189;-88
2023/01/31 09:10:53;;;;;;;1.20;1.10;;;4.50;97.30;;;;;;5023546;28;20412;-88
2023/01/31 09:13:19;;;;;;;1.20;1.10;;;4.50;97.30;;;;;;5021647;28;20213;-88
2023/01/31 09:15:45;;;;;;;3.33;1.90;;;4.50;97.30;;;;;;5051565;23;20484;-88
2023/01/31 09:18:10;;;;;;;1.00;0.90;;;4.50;97.30;;;;;;5013415;28;20195;-88
2023/01/31 09:20:36;;;;;;;1.40;1.30;;;4.50;97.30;;;;;;5013238;28;20185;-87
2023/01/31 09:23:01;;;;;;;0.80;0.70;;;4.50;97.30;;;;;;5013641;28;20177;-88
2023/01/31 09:25:27;;;;;;;2.40;1.47;;;4.50;97.30;;;;;;5005471;28;20252;-88
2023/01/31 09:27:52;;;;;;;1.20;1.10;;;4.60;97.30;;;;;;4997377;28;20243;-88
2023/01/31 09:30:18;;;;;;;2.90;2.70;;;4.60;97.30;;;;;;5006724;28;20205;-88
2023/01/31 09:32:46;;;;;;;3.80;1.20;;;4.60;97.30;;;;;;5002748;28;20193;-90
2023/01/31 09:35:12;;;;;;;1.40;1.30;;;4.70;97.30;;;;;;5002194;28;20441;-89
2023/01/31 09:37:38;;;;;;;3.47;1.97;;;4.70;97.30;;;;;;5011518;28;20471;-89
2023/01/31 09:40:04;;;;;;;1.57;1.47;;;4.70;97.30;;;;;;5012731;28;20324;-90
2023/01/31 09:42:35;;;;;;;1.10;1.00;;;4.70;97.30;;;;;;5011486;28;20192;-88
2023/01/31 09:45:17;;;;;;;1.30;1.20;;;4.70;97.30;;;;;;4992499;28;20464;-88
2023/01/31 09:47:47;;;;;;;0.97;0.87;;;4.80;97.30;;;;;;4993713;28;20421;-89
2023/01/31 09:50:40;;;;;;;1.30;1.20;;;4.80;97.30;;;;;;5007881;28;20424;-88
2023/01/31 09:53:13;;;;;;;0.90;0.80;;;4.80;97.30;;;;;;4998511;28;20416;-88
2023/01/31 09:55:59;;;;;;;1.30;1.20;;;4.90;97.30;;;;;;5004523;28;20452;-88
2023/01/31 09:58:46;;;;;;;4.33;1.80;;;4.90;97.30;;;;;;5004789;28;20424;-89
2023/01/31 10:01:33;;;;;;;1.33;1.07;;;5.00;97.30;;;;;;4992751;28;20424;-87
2023/01/31 10:04:38;;;;;;;1.00;0.90;;;5.00;97.30;;;;;;4995927;28;20466;-88
2023/01/31 10:07:18;;;;;;;2.40;1.87;;;5.10;97.30;;;;;;4987137;28;20436;-88
2023/01/31 10:09:52;;;;;;;2.20;1.40;;;5.20;97.30;;;;;;4995050;28;20588;-89
2023/01/31 10:12:29;;;;;;;1.77;1.50;;;5.20;97.30;;;;;;4992999;28;20416;-87
2023/01/31 10:15:31;;;;;;;1.50;1.40;;;5.20;97.30;;;;;;4987270;28;20839;-89
2023/01/31 10:18:01;;;;;;;1.30;1.03;;;5.30;97.30;;;;;;4982654;28;20439;-88
2023/01/31 10:20:43;;;;;;;5.87;2.40;;;5.30;97.30;;;;;;4992893;28;21159;-86
2023/01/31 10:23:30;;;;;;;1.30;1.20;;;5.30;97.30;;;;;;5007888;28;20428;-88
2023/01/31 10:26:07;;;;;;;1.10;1.00;;;5.40;97.30;;;;;;4999511;28;20503;-87
2023/01/31 10:28:57;;;;;;;0.97;0.87;;;5.40;97.30;;;;;;4992474;28;20464;-87
2023/01/31 10:31:33;;;;;;;2.47;2.27;;;5.40;97.30;;;;;;4995629;28;20943;-88
2023/01/31 10:34:08;;;;;;;1.40;1.30;;;5.40;97.30;;;;;;4991740;28;20440;-87
2023/01/31 10:36:42;;;;;;;1.03;0.93;;;5.40;97.30;;;;;;4989133;28;20420;-88
2023/01/31 10:39:20;;;;;;;2.37;2.23;;;5.50;97.30;;;;;;4988719;28;20457;-86
2023/01/31 10:42:05;;;;;;;7.93;1.20;;;5.50;97.30;;;;;;4987912;28;20436;-86
2023/01/31 10:44:49;;;;;;;1.00;0.90;;;5.60;97.30;;;;;;4987089;28;20567;-86
2023/01/31 10:47:16;;;;;;;3.13;1.63;;;5.60;97.30;;;;;;4988295;28;20430;-87
2023/01/31 10:49:47;;;;;;;6.43;2.17;;;5.60;97.30;;;;;;4986693;28;20429;-88
2023/01/31 10:52:42;;;;;;;1.20;1.10;;;5.60;97.30;;;;;;4986760;28;20414;-87
2023/01/31 10:55:23;;;;;;;0.70;0.70;;;5.60;97.30;;;;;;4982902;28;20430;-87
2023/01/31 10:57:50;;;;;;;4.70;2.00;;;5.60;97.30;;;;;;4984893;28;20845;-87
2023/01/31 11:00:22;;;;;;;2.97;2.63;;;5.60;97.30;;;;;;4986710;28;20425;-88
2023/01/31 11:03:03;;;;;;;1.10;1.00;;;5.60;97.30;;;;;;4985912;28;20433;-88
2023/01/31 11:16:22;;;;;;;1.00;0.90;;;5.60;97.30;;;;;;717914;23;22048;-84
2023/01/31 11:18:53;;;;;;;1.53;1.00;;;5.60;97.30;;;;;;4990296;28;20611;-90
2023/01/31 11:21:31;;;;;;;1.03;0.93;;;5.50;97.30;;;;;;5008346;28;20476;-87
2023/01/31 11:24:20;;;;;;;1.20;1.10;;;5.50;97.30;;;;;;4990213;28;20484;-87
2023/01/31 11:27:21;;;;;;;2.20;1.00;;;5.50;97.30;;;;;;4971364;28;20509;-87
2023/01/31 11:29:49;;;;;;;5.70;1.67;;;5.50;97.30;;;;;;4965927;28;21121;-86
2023/01/31 11:32:27;;;;;;;19.43;1.93;;;5.50;97.30;;;;;;4983600;28;20513;-87
2023/01/31 11:34:58;;;;;;;2.13;1.97;;;5.50;97.30;;;;;;4972708;28;20465;-89
2023/01/31 11:37:24;;;;;;;2.60;2.40;;;5.50;97.30;;;;;;4985797;28;20453;-87
2023/01/31 11:39:58;;;;;;;1.37;1.27;;;5.50;97.30;;;;;;4987428;28;20434;-87
2023/01/31 11:42:24;;;;;;;3.37;3.17;;;5.50;97.30;;;;;;4987086;28;20188;-86
2023/01/31 11:45:28;;;;;;;1.03;0.93;;;5.50;97.30;;;;;;4968980;28;20477;-89
2023/01/31 11:48:08;;;;;;;5.07;3.47;;;5.40;97.30;;;;;;4970693;28;20456;-89
2023/01/31 11:50:40;;;;;;;6.37;1.23;;;5.40;97.30;;;;;;4985848;28;20422;-89
2023/01/31 11:53:18;;;;;;;3.40;1.43;;;5.40;97.30;;;;;;4986882;28;20932;-88
2023/01/31 11:55:46;;;;;;;0.97;0.87;;;5.40;97.30;;;;;;4970991;28;20437;-87
2023/01/31 11:58:23;;;;;;;1.30;1.20;;;5.40;97.30;;;;;;4971155;28;20446;-88
2023/01/31 12:00:56;;;;;;;3.90;1.50;;;5.40;97.30;;;;;;4966495;28;20932;-87
2023/01/31 12:03:23;;;;;;;3.40;3.20;;;5.40;97.30;;;;;;4971299;28;20826;-86
2023/01/31 12:05:58;;;;;;;1.53;1.43;;;5.40;97.30;;;;;;4985156;28;20493;-87
2023/01/31 12:08:39;;;;;;;22.03;2.47;;;5.40;97.30;;;;;;4988823;28;20441;-87
2023/01/31 12:11:28;;;;;;;4.10;1.73;;;5.40;97.30;;;;;;4991112;28;20441;-88
2023/01/31 12:14:05;;;;;;;1.20;1.10;;;5.40;97.30;;;;;;4971522;28;20427;-88
2023/01/31 12:16:31;;;;;;;1.53;1.43;;;5.40;97.30;;;;;;4984750;28;21058;-87
2023/01/31 12:19:12;;;;;;;1.10;1.00;;;5.40;97.30;;;;;;4971786;28;20433;-89
2023/01/31 12:22:00;;;;;;;1.27;1.17;;;5.40;97.30;;;;;;4986803;28;20434;-88
2023/01/31 12:24:45;;;;;;;2.53;1.07;;;5.40;97.30;;;;;;4975638;28;20509;-87
2023/01/31 12:27:32;;;;;;;2.10;1.47;;;5.50;97.30;;;;;;4988493;28;20572;-88
2023/01/31 12:30:26;;;;;;;1.37;1.30;;;5.50;97.30;;;;;;4971360;28;20453;-88
2023/01/31 12:33:29;;;;;;;1.77;1.67;;;5.50;97.30;;;;;;4990223;28;20521;-88
2023/01/31 12:36:14;;;;;;;36.57;2.70;;;5.50;97.30;;;;;;4988312;28;20508;-89
2023/01/31 12:38:55;;;;;;;1.83;1.73;;;5.40;97.30;;;;;;4988457;28;20437;-88
2023/01/31 12:41:34;;;;;;;1.10;1.00;;;5.40;97.30;;;;;;4976196;28;20425;-89
2023/01/31 12:44:25;;;;;;;3.90;1.43;;;5.40;97.30;;;;;;4984909;28;20518;-87
2023/01/31 12:47:24;;;;;;;2.63;2.43;;;5.40;97.30;;;;;;4992710;28;20946;-87
2023/01/31 12:50:03;;;;;;;1.57;1.47;;;5.40;97.30;;;;;;4982433;28;20782;-88
2023/01/31 12:53:07;;;;;;;1.13;1.03;;;5.30;97.30;;;;;;4995619;28;20433;-89
2023/01/31 12:55:41;;;;;;;1.30;1.20;;;5.30;97.30;;;;;;4987989;28;20514;-87
2023/01/31 12:58:33;;;;;;;17.70;1.93;;;5.30;97.30;;;;;;4990123;28;21987;-87
2023/01/31 13:01:10;;;;;;;1.13;1.03;;;5.40;97.30;;;;;;4976874;28;20999;-86
2023/01/31 13:03:42;;;;;;;1.10;1.00;;;5.40;97.30;;;;;;4994340;28;20425;-86
2023/01/31 13:06:16;;;;;;;5.90;2.90;;;5.30;97.30;;;;;;4991307;28;20520;-88
2023/01/31 13:09:07;;;;;;;3.83;2.73;;;5.40;97.30;;;;;;4997792;28;20513;-87
2023/01/31 13:11:39;;;;;;;1.93;1.80;;;5.30;97.30;;;;;;4979407;28;20757;-86
2023/01/31 13:14:11;;;;;;;2.20;1.23;;;5.30;97.30;;;;;;4998631;28;20429;-87
2023/01/31 13:16:43;;;;;;;1.77;1.63;;;5.30;97.30;;;;;;4985660;28;20484;-89
2023/01/31 13:19:22;;;;;;;1.80;1.70;;;5.30;97.30;;;;;;4985673;28;20457;-88
2023/01/31 13:21:54;;;;;;;2.57;2.37;;;5.30;97.30;;;;;;4977896;28;20437;-86
2023/01/31 13:24:32;;;;;;;2.30;1.83;;;5.40;97.30;;;;;;4973530;28;20461;-88
2023/01/31 13:27:17;;;;;;;1.67;1.43;;;5.40;97.30;;;;;;4989778;28;20464;-87
2023/01/31 13:29:48;;;;;;;1.30;1.20;;;5.40;97.30;;;;;;4988991;28;20429;-86
2023/01/31 13:32:24;;;;;;;2.27;2.07;;;5.40;97.30;;;;;;4973184;28;20429;-87
2023/01/31 13:34:57;;;;;;;0.80;0.70;;;5.40;97.30;;;;;;4979529;28;20462;-87
2023/01/31 13:37:25;;;;;;;9.40;2.20;;;5.50;97.30;;;;;;4965168;28;20422;-87
2023/01/31 13:39:56;;;;;;;1.90;1.80;;;5.50;97.30;;;;;;4967167;28;20421;-89
2023/01/31 13:42:21;;;;;;;1.83;1.73;;;5.50;97.30;;;;;;4967722;28;20438;-87
2023/01/31 13:44:48;;;;;;;1.20;1.10;;;5.50;97.30;;;;;;4981997;28;20913;-86